sensor_id;sensor_type;location;lat;lon;timestamp;P1;durP1;ratioP1;P2;durP2;ratioP2
46753;SDS011;32500;50.620;3.400;2023-07-29T00:01:30;84.47;;;53.30;;
46753;SDS011;32500;50.620;3.400;2023-07-29T00:03:55;83.68;;;52.97;;
46753;SDS011;32500;50.620;3.400;2023-07-29T00:06:21;83.82;;;53.15;;
46753;SDS011;32500;50.620;3.400;2023-07-29T00:08:47;83.82;;;53.08;;
46753;SDS011;32500;50.620;3.400;2023-07-29T00:11:12;84.55;;;53.55;;
46753;SDS011;32500;50.620;3.400;2023-07-29T00:13:38;84.28;;;53.35;;
46753;SDS011;32500;50.620;3.400;2023-07-29T00:16:03;83.60;;;53.08;;
46753;SDS011;32500;50.620;3.400;2023-07-29T00:18:29;83.75;;;53.05;;
46753;SDS011;32500;50.620;3.400;2023-07-29T00:20:56;83.97;;;52.92;;
46753;SDS011;32500;50.620;3.400;2023-07-29T00:23:22;85.05;;;53.28;;
46753;SDS011;32500;50.620;3.400;2023-07-29T00:25:48;83.25;;;52.90;;
46753;SDS011;32500;50.620;3.400;2023-07-29T00:28:14;83.38;;;53.15;;
46753;SDS011;32500;50.620;3.400;2023-07-29T00:30:39;83.63;;;52.97;;
46753;SDS011;32500;50.620;3.400;2023-07-29T00:33:05;83.80;;;53.15;;
46753;SDS011;32500;50.620;3.400;2023-07-29T00:35:30;84.22;;;53.33;;
46753;SDS011;32500;50.620;3.400;2023-07-29T00:37:56;83.63;;;53.15;;
46753;SDS011;32500;50.620;3.400;2023-07-29T00:40:22;83.28;;;52.95;;
46753;SDS011;32500;50.620;3.400;2023-07-29T00:42:48;84.10;;;53.20;;
46753;SDS011;32500;50.620;3.400;2023-07-29T00:45:15;84.03;;;52.95;;
46753;SDS011;32500;50.620;3.400;2023-07-29T00:47:41;83.38;;;53.13;;
46753;SDS011;32500;50.620;3.400;2023-07-29T00:50:07;83.55;;;53.17;;
46753;SDS011;32500;50.620;3.400;2023-07-29T00:52:35;83.47;;;53.10;;
46753;SDS011;32500;50.620;3.400;2023-07-29T00:55:00;83.45;;;53.13;;
46753;SDS011;32500;50.620;3.400;2023-07-29T00:57:26;83.13;;;52.92;;
46753;SDS011;32500;50.620;3.400;2023-07-29T00:59:54;83.55;;;53.00;;
46753;SDS011;32500;50.620;3.400;2023-07-29T01:02:21;84.18;;;53.33;;
46753;SDS011;32500;50.620;3.400;2023-07-29T01:04:51;83.85;;;53.15;;
46753;SDS011;32500;50.620;3.400;2023-07-29T01:17:25;83.20;;;52.92;;
46753;SDS011;32500;50.620;3.400;2023-07-29T01:20:20;82.97;;;52.97;;
46753;SDS011;32500;50.620;3.400;2023-07-29T01:22:48;83.68;;;53.05;;
46753;SDS011;32500;50.620;3.400;2023-07-29T01:25:14;84.43;;;53.20;;
46753;SDS011;32500;50.620;3.400;2023-07-29T01:27:41;83.47;;;53.22;;
46753;SDS011;32500;50.620;3.400;2023-07-29T01:30:08;84.18;;;53.25;;
46753;SDS011;32500;50.620;3.400;2023-07-29T01:32:39;82.90;;;52.95;;
46753;SDS011;32500;50.620;3.400;2023-07-29T01:35:28;84.40;;;53.25;;
46753;SDS011;32500;50.620;3.400;2023-07-29T01:37:59;83.20;;;53.05;;
46753;SDS011;32500;50.620;3.400;2023-07-29T01:40:37;82.78;;;52.90;;
46753;SDS011;32500;50.620;3.400;2023-07-29T01:43:03;84.22;;;53.13;;
46753;SDS011;32500;50.620;3.400;2023-07-29T01:45:28;83.82;;;53.15;;
46753;SDS011;32500;50.620;3.400;2023-07-29T01:47:56;82.80;;;52.90;;
46753;SDS011;32500;50.620;3.400;2023-07-29T01:50:22;82.63;;;52.88;;
46753;SDS011;32500;50.620;3.400;2023-07-29T01:52:47;83.00;;;52.78;;
46753;SDS011;32500;50.620;3.400;2023-07-29T01:55:13;83.95;;;52.97;;
46753;SDS011;32500;50.620;3.400;2023-07-29T01:57:39;82.78;;;53.03;;
46753;SDS011;32500;50.620;3.400;2023-07-29T02:00:04;83.75;;;53.08;;
46753;SDS011;32500;50.620;3.400;2023-07-29T02:02:31;82.45;;;52.78;;
46753;SDS011;32500;50.620;3.400;2023-07-29T02:04:56;82.43;;;52.83;;
46753;SDS011;32500;50.620;3.400;2023-07-29T02:07:22;82.72;;;52.70;;
46753;SDS011;32500;50.620;3.400;2023-07-29T02:09:48;82.80;;;52.83;;
46753;SDS011;32500;50.620;3.400;2023-07-29T02:12:13;83.78;;;53.00;;
46753;SDS011;32500;50.620;3.400;2023-07-29T02:14:39;83.10;;;53.08;;
46753;SDS011;32500;50.620;3.400;2023-07-29T02:17:04;83.63;;;53.53;;
46753;SDS011;32500;50.620;3.400;2023-07-29T02:19:30;82.80;;;52.80;;
46753;SDS011;32500;50.620;3.400;2023-07-29T02:21:56;82.25;;;52.60;;
46753;SDS011;32500;50.620;3.400;2023-07-29T02:24:21;83.80;;;53.05;;
46753;SDS011;32500;50.620;3.400;2023-07-29T02:26:47;83.95;;;52.95;;
46753;SDS011;32500;50.620;3.400;2023-07-29T02:29:12;83.45;;;53.08;;
46753;SDS011;32500;50.620;3.400;2023-07-29T02:31:38;82.60;;;52.75;;
46753;SDS011;32500;50.620;3.400;2023-07-29T02:34:04;82.70;;;52.88;;
46753;SDS011;32500;50.620;3.400;2023-07-29T02:36:29;82.85;;;53.15;;
46753;SDS011;32500;50.620;3.400;2023-07-29T02:38:55;85.93;;;53.45;;
46753;SDS011;32500;50.620;3.400;2023-07-29T02:41:21;82.75;;;53.10;;
46753;SDS011;32500;50.620;3.400;2023-07-29T02:43:50;82.50;;;52.95;;
46753;SDS011;32500;50.620;3.400;2023-07-29T02:46:16;83.20;;;53.03;;
46753;SDS011;32500;50.620;3.400;2023-07-29T02:48:43;82.20;;;52.80;;
46753;SDS011;32500;50.620;3.400;2023-07-29T02:51:09;82.50;;;52.67;;
46753;SDS011;32500;50.620;3.400;2023-07-29T02:53:35;83.18;;;52.90;;
46753;SDS011;32500;50.620;3.400;2023-07-29T02:56:04;82.82;;;53.10;;
46753;SDS011;32500;50.620;3.400;2023-07-29T02:58:31;82.95;;;53.03;;
46753;SDS011;32500;50.620;3.400;2023-07-29T03:01:03;82.50;;;52.95;;
46753;SDS011;32500;50.620;3.400;2023-07-29T03:03:29;82.82;;;53.00;;
46753;SDS011;32500;50.620;3.400;2023-07-29T03:05:59;83.63;;;53.03;;
46753;SDS011;32500;50.620;3.400;2023-07-29T03:08:26;83.28;;;53.22;;
46753;SDS011;32500;50.620;3.400;2023-07-29T03:10:52;83.88;;;52.92;;
46753;SDS011;32500;50.620;3.400;2023-07-29T03:13:19;82.80;;;53.17;;
46753;SDS011;32500;50.620;3.400;2023-07-29T03:15:44;82.68;;;53.15;;
46753;SDS011;32500;50.620;3.400;2023-07-29T03:18:10;82.95;;;52.90;;
46753;SDS011;32500;50.620;3.400;2023-07-29T03:20:35;82.35;;;52.90;;
46753;SDS011;32500;50.620;3.400;2023-07-29T03:23:01;82.22;;;52.85;;
46753;SDS011;32500;50.620;3.400;2023-07-29T03:25:27;82.10;;;52.83;;
46753;SDS011;32500;50.620;3.400;2023-07-29T03:27:53;82.57;;;53.20;;
46753;SDS011;32500;50.620;3.400;2023-07-29T03:30:20;83.28;;;53.00;;
46753;SDS011;32500;50.620;3.400;2023-07-29T03:32:46;82.68;;;52.95;;
46753;SDS011;32500;50.620;3.400;2023-07-29T03:35:14;82.35;;;52.72;;
46753;SDS011;32500;50.620;3.400;2023-07-29T03:37:40;82.70;;;52.83;;
46753;SDS011;32500;50.620;3.400;2023-07-29T03:40:06;82.38;;;52.83;;
46753;SDS011;32500;50.620;3.400;2023-07-29T03:42:34;82.30;;;52.88;;
46753;SDS011;32500;50.620;3.400;2023-07-29T03:45:00;82.10;;;52.65;;
46753;SDS011;32500;50.620;3.400;2023-07-29T03:47:25;82.38;;;52.85;;
46753;SDS011;32500;50.620;3.400;2023-07-29T03:49:51;81.80;;;52.55;;
46753;SDS011;32500;50.620;3.400;2023-07-29T03:52:17;81.88;;;52.88;;
46753;SDS011;32500;50.620;3.400;2023-07-29T03:54:42;82.13;;;52.95;;
46753;SDS011;32500;50.620;3.400;2023-07-29T03:57:08;82.30;;;52.85;;
46753;SDS011;32500;50.620;3.400;2023-07-29T03:59:33;82.20;;;53.05;;
46753;SDS011;32500;50.620;3.400;2023-07-29T04:01:59;82.30;;;52.92;;
46753;SDS011;32500;50.620;3.400;2023-07-29T04:04:24;82.35;;;52.70;;
46753;SDS011;32500;50.620;3.400;2023-07-29T04:06:50;82.97;;;53.13;;
46753;SDS011;32500;50.620;3.400;2023-07-29T04:09:16;82.38;;;52.85;;
46753;SDS011;32500;50.620;3.400;2023-07-29T04:11:41;81.95;;;52.90;;
46753;SDS011;32500;50.620;3.400;2023-07-29T04:14:07;82.60;;;53.10;;
46753;SDS011;32500;50.620;3.400;2023-07-29T04:16:32;82.45;;;52.92;;
46753;SDS011;32500;50.620;3.400;2023-07-29T04:18:58;82.07;;;52.92;;
46753;SDS011;32500;50.620;3.400;2023-07-29T04:21:23;82.07;;;52.92;;
46753;SDS011;32500;50.620;3.400;2023-07-29T04:23:49;82.40;;;52.80;;
46753;SDS011;32500;50.620;3.400;2023-07-29T04:26:14;83.00;;;53.10;;
46753;SDS011;32500;50.620;3.400;2023-07-29T04:28:40;82.88;;;52.92;;
46753;SDS011;32500;50.620;3.400;2023-07-29T04:31:06;82.13;;;52.83;;
46753;SDS011;32500;50.620;3.400;2023-07-29T04:33:32;82.18;;;52.88;;
46753;SDS011;32500;50.620;3.400;2023-07-29T04:35:57;81.90;;;52.55;;
46753;SDS011;32500;50.620;3.400;2023-07-29T04:38:26;81.95;;;52.83;;
46753;SDS011;32500;50.620;3.400;2023-07-29T04:40:55;83.45;;;53.20;;
46753;SDS011;32500;50.620;3.400;2023-07-29T04:43:21;82.57;;;52.83;;
46753;SDS011;32500;50.620;3.400;2023-07-29T04:45:46;82.38;;;52.72;;
46753;SDS011;32500;50.620;3.400;2023-07-29T04:48:12;82.28;;;53.05;;
46753;SDS011;32500;50.620;3.400;2023-07-29T04:50:37;82.10;;;52.88;;
46753;SDS011;32500;50.620;3.400;2023-07-29T04:53:03;82.53;;;52.75;;
46753;SDS011;32500;50.620;3.400;2023-07-29T04:55:28;82.40;;;53.20;;
46753;SDS011;32500;50.620;3.400;2023-07-29T04:57:54;82.65;;;52.85;;
46753;SDS011;32500;50.620;3.400;2023-07-29T05:00:19;82.30;;;52.78;;
46753;SDS011;32500;50.620;3.400;2023-07-29T05:02:45;82.57;;;53.20;;
46753;SDS011;32500;50.620;3.400;2023-07-29T05:05:11;82.55;;;53.00;;
46753;SDS011;32500;50.620;3.400;2023-07-29T05:07:36;82.30;;;52.75;;
46753;SDS011;32500;50.620;3.400;2023-07-29T05:10:02;82.68;;;52.95;;
46753;SDS011;32500;50.620;3.400;2023-07-29T05:12:28;83.82;;;52.78;;
46753;SDS011;32500;50.620;3.400;2023-07-29T05:14:54;82.32;;;52.75;;
46753;SDS011;32500;50.620;3.400;2023-07-29T05:17:20;82.55;;;53.13;;
46753;SDS011;32500;50.620;3.400;2023-07-29T05:19:46;82.55;;;52.92;;
46753;SDS011;32500;50.620;3.400;2023-07-29T05:22:11;82.90;;;52.90;;
46753;SDS011;32500;50.620;3.400;2023-07-29T05:24:37;82.57;;;53.05;;
46753;SDS011;32500;50.620;3.400;2023-07-29T05:27:03;82.68;;;52.85;;
46753;SDS011;32500;50.620;3.400;2023-07-29T05:29:28;82.95;;;52.63;;
46753;SDS011;32500;50.620;3.400;2023-07-29T05:31:54;83.05;;;52.78;;
46753;SDS011;32500;50.620;3.400;2023-07-29T05:34:20;82.18;;;52.85;;
46753;SDS011;32500;50.620;3.400;2023-07-29T05:36:45;82.53;;;52.78;;
46753;SDS011;32500;50.620;3.400;2023-07-29T05:39:11;83.05;;;52.95;;
46753;SDS011;32500;50.620;3.400;2023-07-29T05:41:37;82.45;;;52.95;;
46753;SDS011;32500;50.620;3.400;2023-07-29T05:44:02;82.63;;;52.88;;
46753;SDS011;32500;50.620;3.400;2023-07-29T05:46:28;82.65;;;52.80;;
46753;SDS011;32500;50.620;3.400;2023-07-29T05:48:54;83.03;;;52.80;;
46753;SDS011;32500;50.620;3.400;2023-07-29T05:51:19;82.50;;;52.67;;
46753;SDS011;32500;50.620;3.400;2023-07-29T05:53:45;83.10;;;53.05;;
46753;SDS011;32500;50.620;3.400;2023-07-29T05:56:10;82.82;;;52.83;;
46753;SDS011;32500;50.620;3.400;2023-07-29T05:58:36;82.78;;;52.97;;
46753;SDS011;32500;50.620;3.400;2023-07-29T06:01:02;82.82;;;52.75;;
46753;SDS011;32500;50.620;3.400;2023-07-29T06:03:27;83.93;;;52.85;;
46753;SDS011;32500;50.620;3.400;2023-07-29T06:05:53;82.30;;;52.92;;
46753;SDS011;32500;50.620;3.400;2023-07-29T06:08:19;83.07;;;52.78;;
46753;SDS011;32500;50.620;3.400;2023-07-29T06:10:45;82.88;;;52.85;;
46753;SDS011;32500;50.620;3.400;2023-07-29T06:13:10;82.85;;;53.00;;
46753;SDS011;32500;50.620;3.400;2023-07-29T06:15:36;82.80;;;52.88;;
46753;SDS011;32500;50.620;3.400;2023-07-29T06:18:01;82.63;;;52.88;;
46753;SDS011;32500;50.620;3.400;2023-07-29T06:20:27;82.70;;;52.75;;
46753;SDS011;32500;50.620;3.400;2023-07-29T06:22:53;83.80;;;52.97;;
46753;SDS011;32500;50.620;3.400;2023-07-29T06:25:19;83.28;;;53.13;;
46753;SDS011;32500;50.620;3.400;2023-07-29T06:27:44;86.35;;;52.92;;
46753;SDS011;32500;50.620;3.400;2023-07-29T06:30:10;83.30;;;52.95;;
46753;SDS011;32500;50.620;3.400;2023-07-29T06:32:36;83.65;;;53.15;;
46753;SDS011;32500;50.620;3.400;2023-07-29T06:35:02;83.43;;;53.03;;
46753;SDS011;32500;50.620;3.400;2023-07-29T06:37:27;83.32;;;53.08;;
46753;SDS011;32500;50.620;3.400;2023-07-29T06:39:53;86.75;;;53.55;;
46753;SDS011;32500;50.620;3.400;2023-07-29T06:42:18;83.60;;;53.50;;
46753;SDS011;32500;50.620;3.400;2023-07-29T06:44:44;84.05;;;52.88;;
46753;SDS011;32500;50.620;3.400;2023-07-29T06:47:11;84.25;;;53.38;;
46753;SDS011;32500;50.620;3.400;2023-07-29T06:49:37;84.07;;;53.72;;
46753;SDS011;32500;50.620;3.400;2023-07-29T06:52:02;84.38;;;53.33;;
46753;SDS011;32500;50.620;3.400;2023-07-29T06:54:28;83.25;;;53.00;;
46753;SDS011;32500;50.620;3.400;2023-07-29T06:56:54;83.35;;;53.03;;
46753;SDS011;32500;50.620;3.400;2023-07-29T06:59:19;84.53;;;53.20;;
46753;SDS011;32500;50.620;3.400;2023-07-29T07:01:45;85.40;;;53.53;;
46753;SDS011;32500;50.620;3.400;2023-07-29T07:04:11;84.93;;;53.20;;
46753;SDS011;32500;50.620;3.400;2023-07-29T07:06:36;84.10;;;53.47;;
46753;SDS011;32500;50.620;3.400;2023-07-29T07:09:02;84.25;;;53.55;;
46753;SDS011;32500;50.620;3.400;2023-07-29T07:11:28;84.20;;;53.38;;
46753;SDS011;32500;50.620;3.400;2023-07-29T07:13:53;84.95;;;53.75;;
46753;SDS011;32500;50.620;3.400;2023-07-29T07:16:19;84.10;;;53.25;;
46753;SDS011;32500;50.620;3.400;2023-07-29T07:18:44;84.40;;;53.35;;
46753;SDS011;32500;50.620;3.400;2023-07-29T07:21:10;84.95;;;53.65;;
46753;SDS011;32500;50.620;3.400;2023-07-29T07:23:36;84.10;;;53.35;;
46753;SDS011;32500;50.620;3.400;2023-07-29T07:26:01;84.57;;;53.50;;
46753;SDS011;32500;50.620;3.400;2023-07-29T07:28:27;84.47;;;53.58;;
46753;SDS011;32500;50.620;3.400;2023-07-29T07:30:53;84.85;;;53.63;;
46753;SDS011;32500;50.620;3.400;2023-07-29T07:33:20;85.57;;;53.72;;
46753;SDS011;32500;50.620;3.400;2023-07-29T07:35:46;87.50;;;53.83;;
46753;SDS011;32500;50.620;3.400;2023-07-29T07:38:12;84.47;;;53.58;;
46753;SDS011;32500;50.620;3.400;2023-07-29T07:40:37;84.47;;;53.42;;
46753;SDS011;32500;50.620;3.400;2023-07-29T07:43:03;84.53;;;53.35;;
46753;SDS011;32500;50.620;3.400;2023-07-29T07:45:29;84.63;;;53.55;;
46753;SDS011;32500;50.620;3.400;2023-07-29T07:47:56;85.65;;;53.50;;
46753;SDS011;32500;50.620;3.400;2023-07-29T07:50:22;85.03;;;53.35;;
46753;SDS011;32500;50.620;3.400;2023-07-29T07:52:49;84.60;;;53.47;;
46753;SDS011;32500;50.620;3.400;2023-07-29T07:55:14;85.60;;;53.35;;
46753;SDS011;32500;50.620;3.400;2023-07-29T07:57:40;85.25;;;53.45;;
46753;SDS011;32500;50.620;3.400;2023-07-29T08:00:06;85.88;;;53.67;;
46753;SDS011;32500;50.620;3.400;2023-07-29T08:02:32;86.30;;;54.42;;
46753;SDS011;32500;50.620;3.400;2023-07-29T08:04:57;86.03;;;54.20;;
46753;SDS011;32500;50.620;3.400;2023-07-29T08:07:23;86.93;;;54.20;;
46753;SDS011;32500;50.620;3.400;2023-07-29T08:09:49;86.97;;;54.60;;
46753;SDS011;32500;50.620;3.400;2023-07-29T08:12:14;87.65;;;54.22;;
46753;SDS011;32500;50.620;3.400;2023-07-29T08:14:40;86.88;;;54.50;;
46753;SDS011;32500;50.620;3.400;2023-07-29T08:17:06;87.40;;;54.35;;
46753;SDS011;32500;50.620;3.400;2023-07-29T08:19:31;86.97;;;54.67;;
46753;SDS011;32500;50.620;3.400;2023-07-29T08:21:57;87.38;;;54.58;;
46753;SDS011;32500;50.620;3.400;2023-07-29T08:24:23;88.03;;;54.63;;
46753;SDS011;32500;50.620;3.400;2023-07-29T08:26:49;86.43;;;54.53;;
46753;SDS011;32500;50.620;3.400;2023-07-29T08:29:14;87.68;;;55.10;;
46753;SDS011;32500;50.620;3.400;2023-07-29T08:31:40;87.22;;;54.70;;
46753;SDS011;32500;50.620;3.400;2023-07-29T08:34:05;86.18;;;54.78;;
46753;SDS011;32500;50.620;3.400;2023-07-29T08:36:31;87.07;;;55.05;;
46753;SDS011;32500;50.620;3.400;2023-07-29T08:38:57;88.00;;;54.80;;
46753;SDS011;32500;50.620;3.400;2023-07-29T08:41:27;86.95;;;55.05;;
46753;SDS011;32500;50.620;3.400;2023-07-29T08:44:10;86.18;;;54.72;;
46753;SDS011;32500;50.620;3.400;2023-07-29T08:46:42;85.85;;;54.78;;
46753;SDS011;32500;50.620;3.400;2023-07-29T08:49:08;86.45;;;54.78;;
46753;SDS011;32500;50.620;3.400;2023-07-29T08:51:36;87.40;;;54.67;;
46753;SDS011;32500;50.620;3.400;2023-07-29T08:54:03;87.70;;;54.70;;
46753;SDS011;32500;50.620;3.400;2023-07-29T08:56:29;88.82;;;54.80;;
46753;SDS011;32500;50.620;3.400;2023-07-29T08:58:55;86.68;;;54.80;;
46753;SDS011;32500;50.620;3.400;2023-07-29T09:01:21;87.72;;;54.90;;
46753;SDS011;32500;50.620;3.400;2023-07-29T09:03:47;88.00;;;55.17;;
46753;SDS011;32500;50.620;3.400;2023-07-29T09:06:12;86.68;;;54.70;;
46753;SDS011;32500;50.620;3.400;2023-07-29T09:08:39;88.00;;;55.90;;
46753;SDS011;32500;50.620;3.400;2023-07-29T09:11:05;87.32;;;56.25;;
46753;SDS011;32500;50.620;3.400;2023-07-29T09:13:31;88.38;;;55.97;;
46753;SDS011;32500;50.620;3.400;2023-07-29T09:15:57;88.43;;;55.58;;
46753;SDS011;32500;50.620;3.400;2023-07-29T09:18:23;88.45;;;55.40;;
46753;SDS011;32500;50.620;3.400;2023-07-29T09:20:51;87.45;;;55.30;;
46753;SDS011;32500;50.620;3.400;2023-07-29T09:23:17;87.80;;;54.90;;
46753;SDS011;32500;50.620;3.400;2023-07-29T09:25:43;86.80;;;54.88;;
46753;SDS011;32500;50.620;3.400;2023-07-29T09:28:13;86.32;;;54.72;;
46753;SDS011;32500;50.620;3.400;2023-07-29T09:30:40;87.75;;;54.53;;
46753;SDS011;32500;50.620;3.400;2023-07-29T09:33:10;86.97;;;54.85;;
46753;SDS011;32500;50.620;3.400;2023-07-29T09:35:36;87.00;;;55.15;;
46753;SDS011;32500;50.620;3.400;2023-07-29T09:38:03;86.93;;;55.13;;
46753;SDS011;32500;50.620;3.400;2023-07-29T09:40:36;87.75;;;54.97;;
46753;SDS011;32500;50.620;3.400;2023-07-29T09:43:03;85.97;;;54.42;;
46753;SDS011;32500;50.620;3.400;2023-07-29T09:45:30;86.38;;;54.83;;
46753;SDS011;32500;50.620;3.400;2023-07-29T09:47:58;86.13;;;54.65;;
46753;SDS011;32500;50.620;3.400;2023-07-29T09:50:24;86.43;;;54.67;;
46753;SDS011;32500;50.620;3.400;2023-07-29T09:52:51;86.63;;;54.75;;
46753;SDS011;32500;50.620;3.400;2023-07-29T09:55:18;87.10;;;54.90;;
46753;SDS011;32500;50.620;3.400;2023-07-29T09:57:44;87.85;;;55.25;;
46753;SDS011;32500;50.620;3.400;2023-07-29T10:00:10;87.15;;;55.45;;
46753;SDS011;32500;50.620;3.400;2023-07-29T10:02:41;88.50;;;55.85;;
46753;SDS011;32500;50.620;3.400;2023-07-29T10:07:38;90.13;;;56.08;;
46753;SDS011;32500;50.620;3.400;2023-07-29T10:10:05;87.10;;;55.67;;
46753;SDS011;32500;50.620;3.400;2023-07-29T10:12:34;87.40;;;55.15;;
46753;SDS011;32500;50.620;3.400;2023-07-29T10:15:02;87.68;;;54.95;;
46753;SDS011;32500;50.620;3.400;2023-07-29T10:17:30;88.72;;;55.40;;
46753;SDS011;32500;50.620;3.400;2023-07-29T10:19:58;88.63;;;55.25;;
46753;SDS011;32500;50.620;3.400;2023-07-29T10:22:25;87.18;;;55.60;;
46753;SDS011;32500;50.620;3.400;2023-07-29T10:24:54;88.90;;;55.97;;
46753;SDS011;32500;50.620;3.400;2023-07-29T10:27:31;88.43;;;56.55;;
46753;SDS011;32500;50.620;3.400;2023-07-29T10:30:20;87.60;;;56.20;;
46753;SDS011;32500;50.620;3.400;2023-07-29T10:32:47;87.65;;;55.85;;
46753;SDS011;32500;50.620;3.400;2023-07-29T10:35:14;88.22;;;56.40;;
46753;SDS011;32500;50.620;3.400;2023-07-29T10:37:41;90.70;;;56.08;;
46753;SDS011;32500;50.620;3.400;2023-07-29T10:40:07;88.47;;;56.10;;
46753;SDS011;32500;50.620;3.400;2023-07-29T10:42:35;87.32;;;55.80;;
46753;SDS011;32500;50.620;3.400;2023-07-29T10:45:20;87.95;;;55.63;;
46753;SDS011;32500;50.620;3.400;2023-07-29T10:47:47;88.90;;;55.20;;
46753;SDS011;32500;50.620;3.400;2023-07-29T10:50:20;87.38;;;55.17;;
46753;SDS011;32500;50.620;3.400;2023-07-29T10:52:50;87.32;;;55.20;;
46753;SDS011;32500;50.620;3.400;2023-07-29T10:55:24;86.55;;;55.15;;
46753;SDS011;32500;50.620;3.400;2023-07-29T10:57:52;86.47;;;54.83;;
46753;SDS011;32500;50.620;3.400;2023-07-29T11:00:30;87.03;;;54.90;;
46753;SDS011;32500;50.620;3.400;2023-07-29T11:03:04;88.28;;;54.58;;
46753;SDS011;32500;50.620;3.400;2023-07-29T11:05:50;87.55;;;54.85;;
46753;SDS011;32500;50.620;3.400;2023-07-29T11:08:17;87.38;;;54.67;;
46753;SDS011;32500;50.620;3.400;2023-07-29T11:10:44;86.78;;;54.72;;
46753;SDS011;32500;50.620;3.400;2023-07-29T11:15:51;85.88;;;54.47;;
46753;SDS011;32500;50.620;3.400;2023-07-29T11:18:19;87.85;;;54.85;;
46753;SDS011;32500;50.620;3.400;2023-07-29T11:20:45;88.43;;;54.88;;
46753;SDS011;32500;50.620;3.400;2023-07-29T11:23:12;86.65;;;54.63;;
46753;SDS011;32500;50.620;3.400;2023-07-29T11:25:38;88.60;;;54.83;;
46753;SDS011;32500;50.620;3.400;2023-07-29T11:28:04;87.18;;;54.70;;
46753;SDS011;32500;50.620;3.400;2023-07-29T11:30:32;87.35;;;54.42;;
46753;SDS011;32500;50.620;3.400;2023-07-29T11:32:58;86.18;;;54.63;;
46753;SDS011;32500;50.620;3.400;2023-07-29T11:35:27;98.75;;;55.05;;
46753;SDS011;32500;50.620;3.400;2023-07-29T11:37:53;94.57;;;55.72;;
46753;SDS011;32500;50.620;3.400;2023-07-29T11:40:21;90.30;;;55.83;;
46753;SDS011;32500;50.620;3.400;2023-07-29T11:42:48;89.60;;;55.55;;
46753;SDS011;32500;50.620;3.400;2023-07-29T11:45:15;87.38;;;55.33;;
46753;SDS011;32500;50.620;3.400;2023-07-29T11:47:41;88.53;;;55.53;;
46753;SDS011;32500;50.620;3.400;2023-07-29T11:50:07;87.85;;;55.25;;
46753;SDS011;32500;50.620;3.400;2023-07-29T11:52:35;89.43;;;55.47;;
46753;SDS011;32500;50.620;3.400;2023-07-29T11:55:02;88.72;;;55.63;;
46753;SDS011;32500;50.620;3.400;2023-07-29T11:57:29;91.05;;;55.92;;
46753;SDS011;32500;50.620;3.400;2023-07-29T11:59:56;88.00;;;55.80;;
46753;SDS011;32500;50.620;3.400;2023-07-29T12:02:23;88.82;;;55.70;;
46753;SDS011;32500;50.620;3.400;2023-07-29T12:04:49;90.32;;;55.83;;
46753;SDS011;32500;50.620;3.400;2023-07-29T12:07:16;94.55;;;57.42;;
46753;SDS011;32500;50.620;3.400;2023-07-29T12:09:42;94.47;;;58.08;;
46753;SDS011;32500;50.620;3.400;2023-07-29T12:12:08;97.70;;;58.40;;
46753;SDS011;32500;50.620;3.400;2023-07-29T12:14:34;95.28;;;57.13;;
46753;SDS011;32500;50.620;3.400;2023-07-29T12:17:01;92.95;;;56.80;;
46753;SDS011;32500;50.620;3.400;2023-07-29T12:19:31;94.55;;;57.13;;
46753;SDS011;32500;50.620;3.400;2023-07-29T12:21:58;91.85;;;56.95;;
46753;SDS011;32500;50.620;3.400;2023-07-29T12:24:24;93.30;;;57.58;;
46753;SDS011;32500;50.620;3.400;2023-07-29T12:26:49;92.15;;;56.80;;
46753;SDS011;32500;50.620;3.400;2023-07-29T12:29:18;90.63;;;56.58;;
46753;SDS011;32500;50.620;3.400;2023-07-29T12:31:47;91.97;;;57.33;;
46753;SDS011;32500;50.620;3.400;2023-07-29T12:34:20;90.68;;;56.05;;
46753;SDS011;32500;50.620;3.400;2023-07-29T12:36:46;89.10;;;55.90;;
46753;SDS011;32500;50.620;3.400;2023-07-29T12:39:23;89.10;;;55.42;;
46753;SDS011;32500;50.620;3.400;2023-07-29T12:41:51;92.47;;;57.17;;
46753;SDS011;32500;50.620;3.400;2023-07-29T12:44:22;91.68;;;56.65;;
46753;SDS011;32500;50.620;3.400;2023-07-29T12:46:48;90.88;;;56.00;;
46753;SDS011;32500;50.620;3.400;2023-07-29T12:49:14;88.43;;;55.28;;
46753;SDS011;32500;50.620;3.400;2023-07-29T12:51:40;90.88;;;55.65;;
46753;SDS011;32500;50.620;3.400;2023-07-29T12:54:06;90.82;;;55.92;;
46753;SDS011;32500;50.620;3.400;2023-07-29T12:56:32;89.93;;;55.78;;
46753;SDS011;32500;50.620;3.400;2023-07-29T12:58:58;90.32;;;56.10;;
46753;SDS011;32500;50.620;3.400;2023-07-29T13:01:25;89.35;;;56.28;;
46753;SDS011;32500;50.620;3.400;2023-07-29T13:03:52;88.18;;;56.08;;
46753;SDS011;32500;50.620;3.400;2023-07-29T13:06:17;89.85;;;56.42;;
46753;SDS011;32500;50.620;3.400;2023-07-29T13:08:43;88.63;;;56.33;;
46753;SDS011;32500;50.620;3.400;2023-07-29T13:11:10;90.15;;;56.25;;
46753;SDS011;32500;50.620;3.400;2023-07-29T13:13:35;89.13;;;56.15;;
46753;SDS011;32500;50.620;3.400;2023-07-29T13:16:01;89.35;;;56.03;;
46753;SDS011;32500;50.620;3.400;2023-07-29T13:18:27;89.05;;;55.95;;
46753;SDS011;32500;50.620;3.400;2023-07-29T13:20:53;89.30;;;55.88;;
46753;SDS011;32500;50.620;3.400;2023-07-29T13:23:19;87.63;;;55.28;;
46753;SDS011;32500;50.620;3.400;2023-07-29T13:25:45;87.65;;;55.25;;
46753;SDS011;32500;50.620;3.400;2023-07-29T13:28:11;87.45;;;55.13;;
46753;SDS011;32500;50.620;3.400;2023-07-29T13:30:40;88.18;;;55.17;;
46753;SDS011;32500;50.620;3.400;2023-07-29T13:33:06;88.35;;;55.42;;
46753;SDS011;32500;50.620;3.400;2023-07-29T13:35:32;90.22;;;55.45;;
46753;SDS011;32500;50.620;3.400;2023-07-29T13:37:58;87.90;;;55.67;;
46753;SDS011;32500;50.620;3.400;2023-07-29T13:40:24;87.45;;;55.10;;
46753;SDS011;32500;50.620;3.400;2023-07-29T13:42:49;87.50;;;55.15;;
46753;SDS011;32500;50.620;3.400;2023-07-29T13:45:15;88.07;;;55.30;;
46753;SDS011;32500;50.620;3.400;2023-07-29T13:47:41;87.95;;;54.97;;
46753;SDS011;32500;50.620;3.400;2023-07-29T13:50:06;86.47;;;54.92;;
46753;SDS011;32500;50.620;3.400;2023-07-29T13:52:33;87.93;;;55.10;;
46753;SDS011;32500;50.620;3.400;2023-07-29T13:54:58;88.47;;;55.50;;
46753;SDS011;32500;50.620;3.400;2023-07-29T13:57:24;89.47;;;55.70;;
46753;SDS011;32500;50.620;3.400;2023-07-29T13:59:50;89.43;;;56.05;;
46753;SDS011;32500;50.620;3.400;2023-07-29T14:02:16;92.75;;;55.70;;
46753;SDS011;32500;50.620;3.400;2023-07-29T14:04:41;88.72;;;55.25;;
46753;SDS011;32500;50.620;3.400;2023-07-29T14:07:07;87.47;;;55.38;;
46753;SDS011;32500;50.620;3.400;2023-07-29T14:09:32;87.55;;;55.38;;
46753;SDS011;32500;50.620;3.400;2023-07-29T14:11:58;88.65;;;55.38;;
46753;SDS011;32500;50.620;3.400;2023-07-29T14:14:24;86.47;;;54.58;;
46753;SDS011;32500;50.620;3.400;2023-07-29T14:16:49;86.18;;;54.42;;
46753;SDS011;32500;50.620;3.400;2023-07-29T14:19:15;85.75;;;54.15;;
46753;SDS011;32500;50.620;3.400;2023-07-29T14:21:41;88.22;;;54.28;;
46753;SDS011;32500;50.620;3.400;2023-07-29T14:24:06;86.43;;;54.00;;
46753;SDS011;32500;50.620;3.400;2023-07-29T14:26:32;86.85;;;54.55;;
46753;SDS011;32500;50.620;3.400;2023-07-29T14:28:58;89.60;;;54.47;;
46753;SDS011;32500;50.620;3.400;2023-07-29T14:31:23;87.20;;;54.33;;
46753;SDS011;32500;50.620;3.400;2023-07-29T14:33:49;86.03;;;54.30;;